createdAt,value
2018-05-16T00:00:07.569Z,61.92
2018-05-16T00:00:38.796Z,63.05
2018-05-16T00:01:10.075Z,63.79
2018-05-16T00:01:41.279Z,64.18
2018-05-16T00:02:12.503Z,64.55
2018-05-16T00:02:43.747Z,64.97
2018-05-16T00:03:14.965Z,64.54
2018-05-16T00:03:46.176Z,63.16
2018-05-16T00:04:17.392Z,62.96
2018-05-16T00:04:48.623Z,63.32
2018-05-16T00:05:19.833Z,63.02
2018-05-16T00:05:51.058Z,63.28
2018-05-16T00:06:22.285Z,62.88
2018-05-16T00:06:53.499Z,62.33
2018-05-16T00:07:24.751Z,62.82
2018-05-16T00:07:55.985Z,62.85
2018-05-16T00:08:27.212Z,62.88
2018-05-16T00:08:58.425Z,62.56
2018-05-16T00:09:29.644Z,62.94
2018-05-16T00:10:00.857Z,62.98
2018-05-16T00:10:32.079Z,63.11
2018-05-16T00:11:03.340Z,62.73
2018-05-16T00:11:34.558Z,62.41
2018-05-16T00:12:05.774Z,62.63
2018-05-16T00:12:36.980Z,62.54
2018-05-16T00:13:08.215Z,62.50
2018-05-16T00:13:39.445Z,62.53
2018-05-16T00:14:10.702Z,62.88
2018-05-16T00:14:41.917Z,63.14
2018-05-16T00:15:13.172Z,63.03
2018-05-16T00:15:44.389Z,63.04
2018-05-16T00:16:15.612Z,62.87
2018-05-16T00:16:46.861Z,62.72
2018-05-16T00:17:18.072Z,62.10
2018-05-16T00:17:49.280Z,61.74
2018-05-16T00:18:20.492Z,61.63
2018-05-16T00:18:51.715Z,60.70
2018-05-16T00:19:22.977Z,61.50
2018-05-16T00:19:54.235Z,61.68
2018-05-16T00:20:25.446Z,61.22
2018-05-16T00:20:56.678Z,61.63
2018-05-16T00:21:27.899Z,62.61
2018-05-16T00:21:59.208Z,62.46
2018-05-16T00:22:30.418Z,61.77
2018-05-16T00:23:01.646Z,62.14
2018-05-16T00:23:32.868Z,62.55
2018-05-16T00:24:04.090Z,62.70
2018-05-16T00:24:35.369Z,62.55
2018-05-16T00:25:06.589Z,62.72
2018-05-16T00:25:37.797Z,62.34
2018-05-16T00:26:09.013Z,62.08
2018-05-16T00:26:40.241Z,60.98
2018-05-16T00:27:11.448Z,60.04
2018-05-16T00:27:42.662Z,59.85
2018-05-16T00:28:13.870Z,59.92
2018-05-16T00:28:45.085Z,60.16
2018-05-16T00:29:16.341Z,59.84
2018-05-16T00:29:47.554Z,59.58
2018-05-16T00:30:18.786Z,59.19
2018-05-16T00:30:49.999Z,59.96
2018-05-16T00:31:21.324Z,59.79
2018-05-16T00:31:52.546Z,59.14
2018-05-16T00:32:23.776Z,58.63
2018-05-16T00:32:55.029Z,57.60
2018-05-16T00:33:26.300Z,56.57
2018-05-16T00:33:57.518Z,56.34
2018-05-16T00:34:28.752Z,57.27
2018-05-16T00:35:00.055Z,57.58
2018-05-16T00:35:31.278Z,58.93
2018-05-16T00:36:02.514Z,59.30
2018-05-16T00:36:33.742Z,59.82
2018-05-16T00:37:04.938Z,60.07
2018-05-16T00:37:36.163Z,59.60
2018-05-16T00:38:07.387Z,59.58
2018-05-16T00:38:38.633Z,59.59
2018-05-16T00:39:09.818Z,59.72
2018-05-16T00:39:41.036Z,60.13
2018-05-16T00:40:12.292Z,59.41
2018-05-16T00:40:43.519Z,59.37
2018-05-16T00:41:14.741Z,59.12
2018-05-16T00:41:45.951Z,58.79
2018-05-16T00:42:17.164Z,58.85
2018-05-16T00:42:48.370Z,59.25
2018-05-16T00:43:19.593Z,59.51
2018-05-16T00:43:50.838Z,59.82
2018-05-16T00:44:22.065Z,60.54
2018-05-16T00:44:53.329Z,60.68
2018-05-16T00:45:24.586Z,60.80
2018-05-16T00:45:55.798Z,61.18
2018-05-16T00:46:27.013Z,61.33
2018-05-16T00:46:58.256Z,61.24
2018-05-16T00:47:29.476Z,61.27
2018-05-16T00:48:00.694Z,61.24
2018-05-16T00:48:31.900Z,61.41
2018-05-16T00:49:03.123Z,61.40
2018-05-16T00:49:34.418Z,61.52
2018-05-16T00:50:05.636Z,61.47
2018-05-16T00:50:36.876Z,61.51
2018-05-16T00:51:08.088Z,61.48
2018-05-16T00:51:39.311Z,61.46
2018-05-16T00:52:10.713Z,61.47
2018-05-16T00:52:41.935Z,61.44
2018-05-16T00:53:13.141Z,61.27
2018-05-16T00:53:44.353Z,61.15
2018-05-16T00:54:15.569Z,60.98
2018-05-16T00:54:46.838Z,60.86
2018-05-16T00:55:18.045Z,60.92
2018-05-16T00:55:49.252Z,60.66
2018-05-16T00:56:20.471Z,60.58
2018-05-16T00:56:51.704Z,60.64
2018-05-16T00:57:22.941Z,60.49
2018-05-16T00:57:54.144Z,60.61
2018-05-16T00:58:25.362Z,60.48
2018-05-16T00:58:56.600Z,60.90
2018-05-16T00:59:27.859Z,60.97
2018-05-16T00:59:59.069Z,61.12
2018-05-16T01:00:30.301Z,61.43
2018-05-16T01:01:01.516Z,61.37
2018-05-16T01:01:32.733Z,61.54
2018-05-16T01:02:03.960Z,61.67
2018-05-16T01:02:35.177Z,61.60
2018-05-16T01:03:06.403Z,61.79
2018-05-16T01:03:37.666Z,61.53
2018-05-16T01:04:08.876Z,61.54
2018-05-16T01:04:40.439Z,61.79
2018-05-16T01:05:11.664Z,61.38
2018-05-16T01:05:42.876Z,61.12
2018-05-16T01:06:14.090Z,61.52
2018-05-16T01:06:45.297Z,61.56
2018-05-16T01:07:16.515Z,61.83
2018-05-16T01:07:47.751Z,61.51
2018-05-16T01:08:19.009Z,62.39
2018-05-16T01:08:50.225Z,62.10
2018-05-16T01:09:21.447Z,62.17
2018-05-16T01:09:52.661Z,62.40
2018-05-16T01:10:23.876Z,63.33
2018-05-16T01:10:55.101Z,62.24
2018-05-16T01:11:26.344Z,62.14
2018-05-16T01:11:57.570Z,62.08
2018-05-16T01:12:28.775Z,61.85
2018-05-16T01:13:00.025Z,61.54
2018-05-16T01:13:31.240Z,61.66
2018-05-16T01:14:02.525Z,61.59
2018-05-16T01:14:33.754Z,61.47
2018-05-16T01:15:04.973Z,61.24
2018-05-16T01:15:36.209Z,61.69
2018-05-16T01:16:07.429Z,61.65
2018-05-16T01:16:38.656Z,61.61
2018-05-16T01:17:09.851Z,61.36
2018-05-16T01:17:41.077Z,61.34
2018-05-16T01:18:12.301Z,61.41
2018-05-16T01:18:43.566Z,61.49
2018-05-16T01:19:14.797Z,61.38
2018-05-16T01:19:46.017Z,61.50
2018-05-16T01:20:17.267Z,62.52
2018-05-16T01:20:48.525Z,62.50
2018-05-16T01:21:19.773Z,62.22
2018-05-16T01:21:50.981Z,62.11
2018-05-16T01:22:22.445Z,62.20
2018-05-16T01:22:53.676Z,61.78
2018-05-16T01:23:24.894Z,61.94
2018-05-16T01:23:56.156Z,61.92
2018-05-16T01:24:27.373Z,61.76
2018-05-16T01:24:58.632Z,61.20
2018-05-16T01:25:29.841Z,61.02
2018-05-16T01:26:01.044Z,61.00
2018-05-16T01:26:32.261Z,62.13
2018-05-16T01:27:03.487Z,62.31
2018-05-16T01:27:34.791Z,62.70
2018-05-16T01:28:06.052Z,62.48
2018-05-16T01:28:37.261Z,62.26
2018-05-16T01:29:08.513Z,61.56
2018-05-16T01:29:39.727Z,61.14
2018-05-16T01:30:10.937Z,61.53
2018-05-16T01:30:42.162Z,61.51
2018-05-16T01:31:13.360Z,61.51
2018-05-16T01:31:44.581Z,61.55
2018-05-16T01:32:15.811Z,61.50
2018-05-16T01:32:47.022Z,61.55
2018-05-16T01:33:18.225Z,61.50
2018-05-16T01:33:49.430Z,61.40
2018-05-16T01:34:20.685Z,61.39
2018-05-16T01:34:51.901Z,61.13
2018-05-16T01:35:23.131Z,61.06
2018-05-16T01:35:54.371Z,61.08
2018-05-16T01:36:25.597Z,61.27
2018-05-16T01:36:56.808Z,61.25
2018-05-16T01:37:28.028Z,61.21
2018-05-16T01:37:59.241Z,61.27
2018-05-16T01:38:30.453Z,61.42
2018-05-16T01:39:01.675Z,61.55
2018-05-16T01:39:32.946Z,61.93
2018-05-16T01:40:04.265Z,61.70
2018-05-16T01:40:35.453Z,61.44
2018-05-16T01:41:06.679Z,61.32
2018-05-16T01:41:37.889Z,61.83
2018-05-16T01:42:09.104Z,61.50
2018-05-16T01:42:40.353Z,61.29
2018-05-16T01:43:11.564Z,61.49
2018-05-16T01:43:42.778Z,61.50
2018-05-16T01:44:13.999Z,61.51
2018-05-16T01:44:45.270Z,61.65
2018-05-16T01:45:16.515Z,61.77
2018-05-16T01:45:47.732Z,61.70
2018-05-16T01:46:18.963Z,61.81
2018-05-16T01:46:50.184Z,62.05
2018-05-16T01:47:21.408Z,62.19
2018-05-16T01:47:52.677Z,62.23
2018-05-16T01:48:23.889Z,61.98
2018-05-16T01:48:55.096Z,61.91
2018-05-16T01:49:26.326Z,62.12
2018-05-16T01:49:57.535Z,62.20
2018-05-16T01:50:28.745Z,62.57
2018-05-16T01:50:59.969Z,63.32
2018-05-16T01:51:31.190Z,63.52
2018-05-16T01:52:02.421Z,63.53
2018-05-16T01:52:33.646Z,63.24
2018-05-16T01:53:04.866Z,63.11
2018-05-16T01:53:36.123Z,62.92
2018-05-16T01:54:07.379Z,63.38
2018-05-16T01:54:38.595Z,62.83
2018-05-16T01:55:09.836Z,62.77
2018-05-16T01:55:41.059Z,62.77
2018-05-16T01:56:12.298Z,63.07
2018-05-16T01:56:43.527Z,63.25
2018-05-16T01:57:14.797Z,63.75
2018-05-16T01:57:47.174Z,63.43
2018-05-16T01:58:18.389Z,64.02
2018-05-16T01:58:49.594Z,63.98
2018-05-16T01:59:20.818Z,64.38
2018-05-16T01:59:52.046Z,64.54
2018-05-16T02:00:23.277Z,64.64
2018-05-16T02:00:54.484Z,64.72
2018-05-16T02:01:25.696Z,65.03
2018-05-16T02:01:56.921Z,65.33
2018-05-16T02:02:28.164Z,64.50
2018-05-16T02:02:59.380Z,64.81
2018-05-16T02:03:30.613Z,64.61
2018-05-16T02:04:01.835Z,64.21
2018-05-16T02:04:33.046Z,64.24
2018-05-16T02:05:04.267Z,64.32
2018-05-16T02:05:35.486Z,64.26
2018-05-16T02:06:06.715Z,64.00
2018-05-16T02:06:38.000Z,64.17
2018-05-16T02:07:09.206Z,64.06
2018-05-16T02:07:40.454Z,63.85
2018-05-16T02:08:11.697Z,63.90
2018-05-16T02:08:42.900Z,63.93
2018-05-16T02:09:14.117Z,63.83
2018-05-16T02:09:45.336Z,64.78
2018-05-16T02:10:16.546Z,64.22
2018-05-16T02:10:47.753Z,63.92
2018-05-16T02:11:19.017Z,63.46
2018-05-16T02:11:50.221Z,63.10
2018-05-16T02:12:21.421Z,63.10
2018-05-16T02:12:52.614Z,63.13
2018-05-16T02:13:23.825Z,63.34
2018-05-16T02:13:55.029Z,63.27
2018-05-16T02:14:26.255Z,63.46
2018-05-16T02:14:57.469Z,64.12
2018-05-16T02:15:28.689Z,64.21
2018-05-16T02:15:59.925Z,64.02
2018-05-16T02:16:31.183Z,63.44
2018-05-16T02:17:02.390Z,63.21
2018-05-16T02:17:33.608Z,62.68
2018-05-16T02:18:04.798Z,62.71
2018-05-16T02:18:36.019Z,62.60
2018-05-16T02:19:07.229Z,62.16
2018-05-16T02:19:38.457Z,62.02
2018-05-16T02:20:09.673Z,62.06
2018-05-16T02:20:40.897Z,62.27
2018-05-16T02:21:12.113Z,62.56
2018-05-16T02:21:43.360Z,62.51
2018-05-16T02:22:14.587Z,62.10
2018-05-16T02:22:45.836Z,61.82
2018-05-16T02:23:17.057Z,61.72
2018-05-16T02:23:48.275Z,62.50
2018-05-16T02:24:19.488Z,62.11
2018-05-16T02:24:50.699Z,62.62
2018-05-16T02:25:21.945Z,62.98
2018-05-16T02:25:53.232Z,62.83
2018-05-16T02:26:24.439Z,63.43
2018-05-16T02:26:55.657Z,63.14
2018-05-16T02:27:26.869Z,63.05
2018-05-16T02:27:58.054Z,63.02
2018-05-16T02:28:29.261Z,62.71
2018-05-16T02:29:00.487Z,63.00
2018-05-16T02:29:31.696Z,63.25
2018-05-16T02:30:02.909Z,63.48
2018-05-16T02:30:34.142Z,61.77
2018-05-16T02:31:05.398Z,62.14
2018-05-16T02:31:36.662Z,62.47
2018-05-16T02:32:07.884Z,62.62
2018-05-16T02:32:39.128Z,62.48
2018-05-16T02:33:10.364Z,62.40
2018-05-16T02:33:41.574Z,62.38
2018-05-16T02:34:12.810Z,62.22
2018-05-16T02:34:44.022Z,62.30
2018-05-16T02:35:15.243Z,62.61
2018-05-16T02:35:46.472Z,63.36
2018-05-16T02:36:17.737Z,64.46
2018-05-16T02:36:48.949Z,64.86
2018-05-16T02:37:20.241Z,63.94
2018-05-16T02:37:51.422Z,63.45
2018-05-16T02:38:22.632Z,64.30
2018-05-16T02:38:53.844Z,63.38
2018-05-16T02:39:25.045Z,63.62
2018-05-16T02:39:56.269Z,62.76
2018-05-16T02:40:27.486Z,62.01
2018-05-16T02:41:36.190Z,62.46
2018-05-16T02:42:07.501Z,62.49
2018-05-16T02:42:38.769Z,62.82
2018-05-16T02:43:09.981Z,63.20
2018-05-16T02:43:41.205Z,63.26
2018-05-16T02:44:12.436Z,63.46
2018-05-16T02:44:43.649Z,62.78
2018-05-16T02:45:14.854Z,63.25
2018-05-16T02:45:46.073Z,62.70
2018-05-16T02:46:17.304Z,62.54
2018-05-16T02:46:48.521Z,62.47
2018-05-16T02:47:19.791Z,63.25
2018-05-16T02:47:51.010Z,63.22
2018-05-16T02:48:22.229Z,63.58
2018-05-16T02:48:53.423Z,64.73
2018-05-16T02:49:24.629Z,64.45
2018-05-16T02:49:55.847Z,64.47
2018-05-16T02:50:27.073Z,65.01
2018-05-16T02:50:58.290Z,65.02
2018-05-16T02:51:29.505Z,65.31
2018-05-16T02:52:00.721Z,65.85
2018-05-16T02:52:31.946Z,66.08
2018-05-16T02:53:03.191Z,65.88
2018-05-16T02:53:34.423Z,64.87
2018-05-16T02:54:05.649Z,64.36
2018-05-16T02:54:36.915Z,65.18
2018-05-16T02:55:08.151Z,65.12
2018-05-16T02:55:39.404Z,65.94
2018-05-16T02:56:10.631Z,66.25
2018-05-16T02:56:41.862Z,66.26
2018-05-16T02:57:13.077Z,66.63
2018-05-16T02:57:44.290Z,66.65
2018-05-16T02:58:15.516Z,66.36
2018-05-16T02:58:46.728Z,66.35
2018-05-16T02:59:17.937Z,66.49
2018-05-16T02:59:49.222Z,66.07
2018-05-16T03:00:20.438Z,66.00
2018-05-16T03:00:51.659Z,65.57
2018-05-16T03:01:22.876Z,66.03
2018-05-16T03:01:54.085Z,66.54
2018-05-16T03:02:25.293Z,66.13
2018-05-16T03:02:56.547Z,66.55
2018-05-16T03:03:27.763Z,67.06
2018-05-16T03:03:58.975Z,67.19
2018-05-16T03:04:30.167Z,67.28
2018-05-16T03:05:01.423Z,67.57
2018-05-16T03:05:32.638Z,67.25
2018-05-16T03:06:03.865Z,67.02
2018-05-16T03:06:35.073Z,66.86
2018-05-16T03:07:06.290Z,66.94
2018-05-16T03:07:37.501Z,67.12
2018-05-16T03:08:08.744Z,67.40
2018-05-16T03:08:39.965Z,68.14
2018-05-16T03:09:11.178Z,68.61
2018-05-16T03:09:42.397Z,69.25
2018-05-16T03:10:13.652Z,69.43
2018-05-16T03:10:44.870Z,69.56
2018-05-16T03:11:16.086Z,69.81
2018-05-16T03:11:47.294Z,70.38
2018-05-16T03:12:18.518Z,70.09
2018-05-16T03:12:49.766Z,70.38
2018-05-16T03:13:20.987Z,70.61
2018-05-16T03:13:52.212Z,70.91
2018-05-16T03:14:23.434Z,70.89
2018-05-16T03:14:54.650Z,71.02
2018-05-16T03:15:25.960Z,71.12
2018-05-16T03:15:57.313Z,70.97
2018-05-16T03:16:28.486Z,70.94
2018-05-16T03:16:59.701Z,71.04
2018-05-16T03:17:30.938Z,71.13
2018-05-16T03:18:02.160Z,71.30
2018-05-16T03:18:33.371Z,71.89
2018-05-16T03:19:04.590Z,72.06
2018-05-16T03:19:35.804Z,72.39
2018-05-16T03:20:07.013Z,72.65
2018-05-16T03:20:38.270Z,72.36
2018-05-16T03:21:09.479Z,72.64
2018-05-16T03:21:40.690Z,72.28
2018-05-16T03:22:11.914Z,72.22
2018-05-16T03:22:43.136Z,72.21
2018-05-16T03:23:14.392Z,72.19
2018-05-16T03:23:45.597Z,71.33
2018-05-16T03:24:16.809Z,71.56
2018-05-16T03:24:48.022Z,71.70
2018-05-16T03:25:19.255Z,71.40
2018-05-16T03:25:50.470Z,71.20
2018-05-16T03:26:21.682Z,71.18
2018-05-16T03:26:52.895Z,71.19
2018-05-16T03:27:24.269Z,71.28
2018-05-16T03:27:55.521Z,71.16
2018-05-16T03:28:26.728Z,71.11
2018-05-16T03:28:57.942Z,71.07
2018-05-16T03:29:29.145Z,71.03
2018-05-16T03:30:00.357Z,71.05
2018-05-16T03:30:31.581Z,70.63
2018-05-16T03:31:02.800Z,70.71
2018-05-16T03:31:34.014Z,70.56
2018-05-16T03:32:05.217Z,70.00
2018-05-16T03:32:36.447Z,70.78
2018-05-16T03:33:07.726Z,69.49
2018-05-16T03:33:38.945Z,69.98
2018-05-16T03:34:10.151Z,70.40
2018-05-16T03:34:41.373Z,70.70
2018-05-16T03:35:12.589Z,70.49
2018-05-16T03:35:43.805Z,70.41
2018-05-16T03:36:15.045Z,70.94
2018-05-16T03:36:46.286Z,70.73
2018-05-16T03:37:17.525Z,71.09
2018-05-16T03:37:48.728Z,70.68
2018-05-16T03:38:19.944Z,70.74
2018-05-16T03:38:51.149Z,70.48
2018-05-16T03:39:22.361Z,70.36
2018-05-16T03:39:53.570Z,70.25
2018-05-16T03:40:24.790Z,70.60
2018-05-16T03:40:56.623Z,71.04
2018-05-16T03:41:27.882Z,70.56
2018-05-16T03:41:59.089Z,70.72
2018-05-16T03:42:30.297Z,69.90
2018-05-16T03:43:01.517Z,69.25
2018-05-16T03:43:32.725Z,69.09
2018-05-16T03:44:03.941Z,69.09
2018-05-16T03:44:35.143Z,68.32
2018-05-16T03:45:06.384Z,67.92
2018-05-16T03:45:38.145Z,67.85
2018-05-16T03:46:09.353Z,68.62
2018-05-16T03:46:40.570Z,68.76
2018-05-16T03:47:11.950Z,68.84
2018-05-16T03:47:43.157Z,67.68
2018-05-16T03:48:14.386Z,67.40
2018-05-16T03:48:45.598Z,67.65
2018-05-16T03:49:16.823Z,68.20
2018-05-16T03:49:48.079Z,67.77
2018-05-16T03:50:19.287Z,67.63
2018-05-16T03:50:50.537Z,67.43
2018-05-16T03:51:21.749Z,67.11
2018-05-16T03:51:53.027Z,67.46
2018-05-16T03:52:24.177Z,67.74
2018-05-16T03:52:55.378Z,67.90
2018-05-16T03:53:26.588Z,67.94
2018-05-16T03:53:57.786Z,67.93
2018-05-16T03:54:28.998Z,67.82
2018-05-16T03:55:00.262Z,68.06
2018-05-16T03:55:31.500Z,68.05
2018-05-16T03:56:02.721Z,68.55
2018-05-16T03:56:33.939Z,67.53
2018-05-16T03:57:05.154Z,68.11
2018-05-16T03:57:36.373Z,67.81
2018-05-16T03:58:07.577Z,67.37
2018-05-16T03:58:38.784Z,67.22
2018-05-16T03:59:09.994Z,67.14
2018-05-16T03:59:41.201Z,67.14
2018-05-16T04:00:12.452Z,66.82
2018-05-16T04:00:43.722Z,66.53
2018-05-16T04:01:14.921Z,66.22
2018-05-16T04:01:46.136Z,66.23
2018-05-16T04:02:17.358Z,66.96
2018-05-16T04:02:48.569Z,67.33
2018-05-16T04:03:19.797Z,66.90
2018-05-16T04:03:51.006Z,66.60
2018-05-16T04:04:22.213Z,66.82
2018-05-16T04:04:53.416Z,67.11
2018-05-16T04:05:24.628Z,66.74
2018-05-16T04:05:55.887Z,66.06
2018-05-16T04:06:27.104Z,65.17
2018-05-16T04:06:58.317Z,65.02
2018-05-16T04:07:29.533Z,65.05
2018-05-16T04:08:00.740Z,65.28
2018-05-16T04:08:31.953Z,65.19
2018-05-16T04:09:03.171Z,65.77
2018-05-16T04:09:34.381Z,65.75
2018-05-16T04:10:05.611Z,66.83
2018-05-16T04:10:36.827Z,67.02
2018-05-16T04:11:08.076Z,67.91
2018-05-16T04:11:39.321Z,67.59
2018-05-16T04:12:10.524Z,67.65
2018-05-16T04:12:41.750Z,67.45
2018-05-16T04:13:12.961Z,67.19
2018-05-16T04:13:44.189Z,67.02
2018-05-16T04:14:15.401Z,66.97
2018-05-16T04:14:46.631Z,67.09
2018-05-16T04:15:17.842Z,67.19
2018-05-16T04:15:49.093Z,67.27
2018-05-16T04:16:20.357Z,67.21
2018-05-16T04:16:51.560Z,67.70
2018-05-16T04:17:22.768Z,67.84
2018-05-16T04:17:54.025Z,68.23
2018-05-16T04:18:25.270Z,67.63
2018-05-16T04:18:56.490Z,67.66
2018-05-16T04:19:27.697Z,67.54
2018-05-16T04:19:58.897Z,67.47
2018-05-16T04:20:30.132Z,67.70
2018-05-16T04:21:01.393Z,67.42
2018-05-16T04:21:32.605Z,67.30
2018-05-16T04:22:03.859Z,67.30
2018-05-16T04:22:35.078Z,67.32
2018-05-16T04:23:06.301Z,68.00
2018-05-16T04:23:37.514Z,68.31
2018-05-16T04:24:08.738Z,68.32
2018-05-16T04:24:39.953Z,68.29
2018-05-16T04:25:11.177Z,68.24
2018-05-16T04:25:42.381Z,68.24
2018-05-16T04:26:13.649Z,68.30
2018-05-16T04:26:44.870Z,68.38
2018-05-16T04:27:16.132Z,68.30
2018-05-16T04:27:47.346Z,68.59
2018-05-16T04:28:18.563Z,68.38
2018-05-16T04:28:49.823Z,68.46
2018-05-16T04:29:21.041Z,68.42
2018-05-16T04:29:52.267Z,68.69
2018-05-16T04:30:23.473Z,68.99
2018-05-16T04:30:54.689Z,68.90
2018-05-16T04:31:25.893Z,68.91
2018-05-16T04:31:57.100Z,69.00
2018-05-16T04:32:28.353Z,69.00
2018-05-16T04:32:59.571Z,68.98
2018-05-16T04:33:30.782Z,68.95
2018-05-16T04:34:02.009Z,68.76
2018-05-16T04:34:33.223Z,68.41
2018-05-16T04:35:04.474Z,67.39
2018-05-16T04:35:35.752Z,66.98
2018-05-16T04:36:06.929Z,66.56
2018-05-16T04:36:38.185Z,66.15
2018-05-16T04:37:09.396Z,65.64
2018-05-16T04:37:40.610Z,64.41
2018-05-16T04:38:11.845Z,62.75
2018-05-16T04:38:43.068Z,61.32
2018-05-16T04:39:14.289Z,59.50
2018-05-16T04:39:45.512Z,57.74
2018-05-16T04:40:16.760Z,56.60
2018-05-16T04:40:47.977Z,55.43
2018-05-16T04:41:19.202Z,54.90
2018-05-16T04:41:50.582Z,53.65
2018-05-16T04:42:21.725Z,52.71
2018-05-16T04:42:52.948Z,51.74
2018-05-16T04:43:24.158Z,50.65
2018-05-16T04:43:55.377Z,49.71
2018-05-16T04:44:26.621Z,48.91
2018-05-16T04:44:57.837Z,48.00
2018-05-16T04:45:29.096Z,47.12
2018-05-16T04:46:00.313Z,45.96
2018-05-16T04:46:31.540Z,44.83
2018-05-16T04:47:02.758Z,44.20
2018-05-16T04:47:33.988Z,43.78
2018-05-16T04:48:05.201Z,43.23
2018-05-16T04:48:36.418Z,42.59
2018-05-16T04:49:07.635Z,41.80
2018-05-16T04:49:38.846Z,41.24
2018-05-16T04:50:10.057Z,40.76
2018-05-16T04:50:41.318Z,40.20
2018-05-16T04:51:12.533Z,39.80
2018-05-16T04:51:43.756Z,39.81
2018-05-16T04:52:15.009Z,39.70
2018-05-16T04:52:46.262Z,40.16
2018-05-16T04:53:17.494Z,40.44
2018-05-16T04:53:48.720Z,40.46
2018-05-16T04:54:19.935Z,40.22
2018-05-16T04:54:51.147Z,39.88
2018-05-16T04:55:22.356Z,39.18
2018-05-16T04:55:53.566Z,38.38
2018-05-16T04:56:24.805Z,37.81
2018-05-16T04:56:56.018Z,37.56
2018-05-16T04:57:27.261Z,37.18
2018-05-16T04:57:58.490Z,37.12
2018-05-16T04:58:29.728Z,37.29
2018-05-16T04:59:00.973Z,37.18
2018-05-16T04:59:32.206Z,36.92
2018-05-16T05:00:03.417Z,36.58
2018-05-16T05:00:34.661Z,35.93
2018-05-16T05:01:05.873Z,35.94
2018-05-16T05:01:37.174Z,35.74
2018-05-16T05:02:08.392Z,35.82
2018-05-16T05:02:39.602Z,35.77
2018-05-16T05:03:10.813Z,35.52
2018-05-16T05:03:42.023Z,35.58
2018-05-16T05:04:13.278Z,35.76
2018-05-16T05:04:44.493Z,35.22
2018-05-16T05:05:15.718Z,34.89
2018-05-16T05:05:46.949Z,34.52
2018-05-16T05:06:18.190Z,34.60
2018-05-16T05:06:49.492Z,35.08
2018-05-16T05:07:20.711Z,35.31
2018-05-16T05:07:51.922Z,35.55
2018-05-16T05:08:23.137Z,35.38
2018-05-16T05:08:54.445Z,35.73
2018-05-16T05:09:25.617Z,35.56
2018-05-16T05:09:56.834Z,35.70
2018-05-16T05:10:28.042Z,35.56
2018-05-16T05:10:59.262Z,35.64
2018-05-16T05:11:30.521Z,35.74
2018-05-16T05:12:01.729Z,36.06
2018-05-16T05:12:32.940Z,36.27
2018-05-16T05:13:04.188Z,36.22
2018-05-16T05:13:35.404Z,36.29
2018-05-16T05:14:06.714Z,36.02
2018-05-16T05:14:37.945Z,36.07
2018-05-16T05:15:09.144Z,35.96
2018-05-16T05:15:40.349Z,36.03
2018-05-16T05:16:11.577Z,36.38
2018-05-16T05:16:42.795Z,35.74
2018-05-16T05:17:14.060Z,36.33
2018-05-16T05:17:45.317Z,36.66
2018-05-16T05:18:16.705Z,36.84
2018-05-16T05:18:47.850Z,37.19
2018-05-16T05:19:19.041Z,37.42
2018-05-16T05:19:50.252Z,37.19
2018-05-16T05:20:21.477Z,38.00
2018-05-16T05:20:52.697Z,38.56
2018-05-16T05:21:23.960Z,38.45
2018-05-16T05:21:55.187Z,38.41
2018-05-16T05:22:26.389Z,38.34
2018-05-16T05:22:57.601Z,38.50
2018-05-16T05:23:28.814Z,38.69
2018-05-16T05:24:00.064Z,38.23
2018-05-16T05:24:31.281Z,38.00
2018-05-16T05:25:02.503Z,37.94
2018-05-16T05:25:33.725Z,37.95
2018-05-16T05:26:04.995Z,37.93
2018-05-16T05:26:36.249Z,38.27
2018-05-16T05:27:07.431Z,38.62
2018-05-16T05:27:38.650Z,38.41
2018-05-16T05:28:09.870Z,38.61
2018-05-16T05:28:41.126Z,38.80
2018-05-16T05:29:13.489Z,38.11
2018-05-16T05:29:44.694Z,38.62
2018-05-16T05:30:15.931Z,37.74
2018-05-16T05:30:47.163Z,38.07
2018-05-16T05:31:18.372Z,38.45
2018-05-16T05:31:49.577Z,38.15
2018-05-16T05:32:20.795Z,38.56
2018-05-16T05:32:52.008Z,38.63
2018-05-16T05:33:23.231Z,38.85
2018-05-16T05:33:54.472Z,38.86
2018-05-16T05:34:25.735Z,39.18
2018-05-16T05:34:56.952Z,39.35
2018-05-16T05:35:28.143Z,40.22
2018-05-16T05:35:59.345Z,40.11
2018-05-16T05:36:30.634Z,40.05
2018-05-16T05:37:02.625Z,40.89
2018-05-16T05:37:33.837Z,40.18
2018-05-16T05:38:05.041Z,40.57
2018-05-16T05:38:36.253Z,39.57
2018-05-16T05:39:07.512Z,40.91
2018-05-16T05:39:38.702Z,41.45
2018-05-16T05:40:09.918Z,41.04
2018-05-16T05:40:41.134Z,41.47
2018-05-16T05:41:12.348Z,41.66
2018-05-16T05:41:43.619Z,41.72
2018-05-16T05:42:14.825Z,41.15
2018-05-16T05:42:46.037Z,40.79
2018-05-16T05:43:17.272Z,40.18
2018-05-16T05:43:48.493Z,40.41
2018-05-16T05:44:19.718Z,39.85
2018-05-16T05:44:50.938Z,40.16
2018-05-16T05:45:22.131Z,40.52
2018-05-16T05:45:53.341Z,40.60
2018-05-16T05:46:24.565Z,40.61
2018-05-16T05:46:55.817Z,41.09
2018-05-16T05:47:27.034Z,41.00
2018-05-16T05:47:58.265Z,41.92
2018-05-16T05:48:29.483Z,42.44
2018-05-16T05:49:01.822Z,42.61
2018-05-16T05:49:33.032Z,42.40
2018-05-16T05:50:04.293Z,43.05
2018-05-16T05:50:35.506Z,42.78
2018-05-16T05:51:06.713Z,42.40
2018-05-16T05:51:37.920Z,41.84
2018-05-16T05:52:09.245Z,42.37
2018-05-16T05:52:40.425Z,42.28
2018-05-16T05:53:11.630Z,42.85
2018-05-16T05:53:42.846Z,43.08
2018-05-16T05:54:14.148Z,43.46
2018-05-16T05:54:46.575Z,43.34
2018-05-16T05:55:17.829Z,43.42
2018-05-16T05:55:49.094Z,43.76
2018-05-16T05:56:20.313Z,43.45
2018-05-16T05:56:51.526Z,42.68
2018-05-16T05:57:22.714Z,42.47
2018-05-16T05:57:53.912Z,43.44
2018-05-16T05:58:25.123Z,43.20
2018-05-16T05:58:56.349Z,43.27
2018-05-16T05:59:27.579Z,43.44
2018-05-16T05:59:58.847Z,43.98
2018-05-16T06:00:30.085Z,43.82
2018-05-16T06:01:01.378Z,43.61
2018-05-16T06:01:32.618Z,44.29
2018-05-16T06:02:03.922Z,44.44
2018-05-16T06:02:35.171Z,44.75
2018-05-16T06:03:06.446Z,44.72
2018-05-16T06:03:37.725Z,44.69
2018-05-16T06:04:08.949Z,44.97
2018-05-16T06:04:40.152Z,44.73
2018-05-16T06:05:11.383Z,45.17
2018-05-16T06:05:42.616Z,45.06
2018-05-16T06:06:13.881Z,45.23
2018-05-16T06:06:45.159Z,45.20
2018-05-16T06:07:16.417Z,45.43
2018-05-16T06:07:47.675Z,44.79
2018-05-16T06:08:18.945Z,44.80
2018-05-16T06:08:50.254Z,44.64
2018-05-16T06:09:21.546Z,44.54
2018-05-16T06:09:52.811Z,44.92
2018-05-16T06:10:24.108Z,44.88
2018-05-16T06:10:55.364Z,45.11
2018-05-16T06:11:26.638Z,45.23
2018-05-16T06:11:57.866Z,45.91
2018-05-16T06:12:29.117Z,46.83
2018-05-16T06:13:00.314Z,47.28
2018-05-16T06:13:31.511Z,47.63
2018-05-16T06:14:02.738Z,46.91
2018-05-16T06:14:33.988Z,47.37
2018-05-16T06:15:05.315Z,46.79
2018-05-16T06:15:36.559Z,46.72
2018-05-16T06:16:07.888Z,46.69
2018-05-16T06:16:39.181Z,47.69
2018-05-16T06:17:10.474Z,47.04
2018-05-16T06:17:41.783Z,46.99
2018-05-16T06:18:13.102Z,47.33
2018-05-16T06:18:44.386Z,47.56
2018-05-16T06:19:15.686Z,47.50
2018-05-16T06:19:46.978Z,47.67
2018-05-16T06:20:18.176Z,47.26
2018-05-16T06:20:49.382Z,47.85
2018-05-16T06:21:20.594Z,47.48
2018-05-16T06:21:51.832Z,47.37
2018-05-16T06:22:23.082Z,47.71
2018-05-16T06:22:54.395Z,47.69
2018-05-16T06:23:25.626Z,47.70
2018-05-16T06:23:56.864Z,47.74
2018-05-16T06:24:28.113Z,48.01
2018-05-16T06:24:59.325Z,48.73
2018-05-16T06:25:30.544Z,48.89
2018-05-16T06:26:01.760Z,49.19
2018-05-16T06:26:32.993Z,49.21
2018-05-16T06:27:04.382Z,49.30
2018-05-16T06:27:35.671Z,49.43
2018-05-16T06:28:06.886Z,49.37
2018-05-16T06:28:38.122Z,49.37
2018-05-16T06:29:09.394Z,49.16
2018-05-16T06:29:40.604Z,49.11
2018-05-16T06:30:11.819Z,49.15
2018-05-16T06:30:43.000Z,49.10
2018-05-16T06:31:14.161Z,49.09
2018-05-16T06:31:45.318Z,48.76
2018-05-16T06:32:16.456Z,49.20
2018-05-16T06:32:47.733Z,49.08
2018-05-16T06:33:18.822Z,48.98
2018-05-16T06:33:50.067Z,48.95
2018-05-16T06:34:21.258Z,48.81
2018-05-16T06:34:52.432Z,48.54
2018-05-16T06:35:23.580Z,48.72
2018-05-16T06:35:54.783Z,48.51
2018-05-16T06:36:25.981Z,48.75
2018-05-16T06:36:57.158Z,48.79
2018-05-16T06:37:28.300Z,48.90
2018-05-16T06:37:59.457Z,48.93
2018-05-16T06:38:30.622Z,48.63
2018-05-16T06:39:01.821Z,48.51
2018-05-16T06:39:33.032Z,48.40
2018-05-16T06:40:04.156Z,48.29
2018-05-16T06:40:35.313Z,48.25
2018-05-16T06:41:06.440Z,48.03
2018-05-16T06:41:37.597Z,47.93
2018-05-16T06:42:08.757Z,48.15
2018-05-16T06:42:39.931Z,48.38